Time;durP1;ratioP1;P1;durP2;ratioP2;P2;SDS_P1;SDS_P2;PMS_P1;PMS_P2;Temp;Humidity;BMP_temperature;BMP_pressure;BME280_temperature;BME280_humidity;BME280_pressure;Samples;Min_cycle;Max_cycle;Signal;HPM_P1;HPM_P2
2023/01/09 00:01:42;;;;;;;5.47;4.53;;;;;;;;;;10406890;28;20385;-57
2023/01/09 00:06:45;;;;;;;5.47;4.55;;;;;;;;;;10407071;28;20057;-48
2023/01/09 00:11:46;;;;;;;6.82;4.40;;;;;;;;;;10406621;28;20033;-48
2023/01/09 00:16:47;;;;;;;5.88;4.45;;;;;;;;;;10415492;28;20017;-49
2023/01/09 00:21:48;;;;;;;6.57;4.47;;;;;;;;;;10415207;28;20465;-49
2023/01/09 00:26:48;;;;;;;4.80;3.80;;;;;;;;;;10414762;28;20162;-51
2023/01/09 00:31:49;;;;;;;4.55;4.05;;;;;;;;;;10414978;28;20457;-49
2023/01/09 00:36:53;;;;;;;4.63;4.13;;;;;;;;;;10414010;28;20380;-53
2023/01/09 00:41:57;;;;;;;4.70;4.13;;;;;;;;;;10414567;28;20476;-51
2023/01/09 00:47:04;;;;;;;7.40;3.70;;;;;;;;;;10412811;28;20489;-52
2023/01/09 00:52:06;;;;;;;4.85;3.85;;;;;;;;;;10400892;28;20045;-47
2023/01/09 00:57:10;;;;;;;7.82;3.95;;;;;;;;;;10412490;28;20245;-49
2023/01/09 01:02:10;;;;;;;4.82;3.60;;;;;;;;;;10411088;28;20021;-49
2023/01/09 01:12:30;;;;;;;7.43;3.78;;;;;;;;;;10413111;28;20278;-48
2023/01/09 01:17:37;;;;;;;5.05;3.60;;;;;;;;;;10413224;28;20039;-46
2023/01/09 01:22:37;;;;;;;4.63;3.33;;;;;;;;;;10412519;28;20036;-48
2023/01/09 01:27:39;;;;;;;4.25;3.20;;;;;;;;;;10412431;28;20424;-48
2023/01/09 01:32:39;;;;;;;4.00;3.13;;;;;;;;;;10412640;28;20071;-48
2023/01/09 01:37:40;;;;;;;4.00;3.35;;;;;;;;;;10411777;28;20032;-47
2023/01/09 01:42:50;;;;;;;3.83;3.42;;;;;;;;;;10400185;28;20029;-55
2023/01/09 01:48:07;;;;;;;3.13;2.83;;;;;;;;;;10411653;28;20037;-57
2023/01/09 01:53:23;;;;;;;3.22;2.92;;;;;;;;;;10403908;28;20499;-57
2023/01/09 01:58:25;;;;;;;3.85;3.28;;;;;;;;;;10411269;28;20018;-55
2023/01/09 02:03:27;;;;;;;3.97;3.28;;;;;;;;;;10411444;28;20025;-59
2023/01/09 02:08:28;;;;;;;3.95;2.90;;;;;;;;;;10410967;28;20112;-59
2023/01/09 02:13:30;;;;;;;2.58;2.35;;;;;;;;;;10409923;28;20036;-59
2023/01/09 02:18:50;;;;;;;2.97;2.67;;;;;;;;;;10410000;28;20060;-57
2023/01/09 02:24:19;;;;;;;3.38;3.08;;;;;;;;;;10410614;28;20032;-51
2023/01/09 02:29:31;;;;;;;3.00;2.70;;;;;;;;;;10398180;28;20108;-48
2023/01/09 02:34:43;;;;;;;3.03;2.53;;;;;;;;;;10409077;28;20366;-49
2023/01/09 02:40:13;;;;;;;3.30;2.47;;;;;;;;;;10409736;28;20025;-56
2023/01/09 02:45:14;;;;;;;3.45;2.78;;;;;;;;;;10403035;28;20025;-46
2023/01/09 02:50:21;;;;;;;2.80;2.60;;;;;;;;;;10402776;28;20107;-56
2023/01/09 02:55:51;;;;;;;3.55;2.55;;;;;;;;;;10397631;28;20025;-56
2023/01/09 03:01:23;;;;;;;2.10;1.95;;;;;;;;;;10407828;28;20024;-59
2023/01/09 03:06:42;;;;;;;3.53;2.50;;;;;;;;;;10403721;28;20018;-59
2023/01/09 03:12:06;;;;;;;2.50;2.28;;;;;;;;;;10408702;28;20091;-57
2023/01/09 03:17:12;;;;;;;2.70;2.50;;;;;;;;;;10405580;28;20112;-57
2023/01/09 03:22:13;;;;;;;2.60;2.25;;;;;;;;;;10406867;28;20036;-59
2023/01/09 03:27:13;;;;;;;4.70;2.20;;;;;;;;;;10408045;28;20037;-58
2023/01/09 03:32:14;;;;;;;2.42;2.22;;;;;;;;;;10407189;28;20036;-59
2023/01/09 03:37:15;;;;;;;4.65;2.30;;;;;;;;;;10407436;28;20034;-57
2023/01/09 03:42:15;;;;;;;2.55;2.20;;;;;;;;;;10407475;28;20025;-57
2023/01/09 03:47:16;;;;;;;2.55;2.13;;;;;;;;;;10407340;28;20369;-57
2023/01/09 03:52:16;;;;;;;2.40;2.20;;;;;;;;;;10406194;28;20045;-58
2023/01/09 03:57:17;;;;;;;2.00;1.85;;;;;;;;;;10407264;28;20029;-58
2023/01/09 04:02:18;;;;;;;1.92;1.73;;;;;;;;;;10407379;28;20059;-58
2023/01/09 04:07:18;;;;;;;2.78;2.10;;;;;;;;;;10406871;28;20037;-59
2023/01/09 04:12:19;;;;;;;3.17;1.92;;;;;;;;;;10406989;28;20033;-56
2023/01/09 04:17:19;;;;;;;2.30;1.88;;;;;;;;;;10406897;28;20029;-57
2023/01/09 04:22:20;;;;;;;2.50;2.20;;;;;;;;;;10406961;28;20034;-53
2023/01/09 04:27:20;;;;;;;3.35;2.20;;;;;;;;;;10406549;28;20040;-54
2023/01/09 04:32:21;;;;;;;2.17;1.98;;;;;;;;;;10407584;28;20040;-50
2023/01/09 04:37:22;;;;;;;2.63;2.10;;;;;;;;;;10406513;28;20082;-52
2023/01/09 04:42:23;;;;;;;2.20;2.00;;;;;;;;;;10406442;28;20433;-54
2023/01/09 04:47:24;;;;;;;1.95;1.75;;;;;;;;;;10406367;28;20087;-58
2023/01/09 04:52:25;;;;;;;1.70;1.52;;;;;;;;;;10405212;28;20049;-58
2023/01/09 04:57:25;;;;;;;2.22;2.03;;;;;;;;;;10406549;28;20021;-52
2023/01/09 05:02:26;;;;;;;2.00;1.80;;;;;;;;;;10413649;28;20416;-56
2023/01/09 05:07:27;;;;;;;2.10;1.63;;;;;;;;;;10407714;28;20492;-57
2023/01/09 05:12:27;;;;;;;2.00;1.80;;;;;;;;;;10412508;28;20091;-59
2023/01/09 05:17:29;;;;;;;1.95;1.85;;;;;;;;;;10412774;28;20029;-59
2023/01/09 05:22:29;;;;;;;1.90;1.80;;;;;;;;;;10412342;28;20113;-59
2023/01/09 05:27:30;;;;;;;2.97;1.80;;;;;;;;;;10412471;28;20095;-55
2023/01/09 05:32:31;;;;;;;1.70;1.60;;;;;;;;;;10412205;28;20045;-57
2023/01/09 05:37:31;;;;;;;2.13;1.70;;;;;;;;;;10411965;28;20484;-58
2023/01/09 05:42:32;;;;;;;1.73;1.63;;;;;;;;;;10412301;28;20275;-57
2023/01/09 05:47:32;;;;;;;2.00;1.58;;;;;;;;;;10411659;28;20424;-57
2023/01/09 05:52:33;;;;;;;1.95;1.55;;;;;;;;;;10404478;28;20496;-57
2023/01/09 05:57:33;;;;;;;1.90;1.80;;;;;;;;;;10379425;28;20481;-54
2023/01/09 06:02:34;;;;;;;2.00;1.80;;;;;;;;;;10379871;28;20378;-56
2023/01/09 06:07:38;;;;;;;1.88;1.77;;;;;;;;;;10408717;28;20029;-53
2023/01/09 06:12:38;;;;;;;1.73;1.63;;;;;;;;;;10410291;28;20236;-51
2023/01/09 06:17:39;;;;;;;1.70;1.60;;;;;;;;;;10410678;28;20206;-55
2023/01/09 06:22:40;;;;;;;1.80;1.67;;;;;;;;;;10410053;28;20052;-57
2023/01/09 06:27:40;;;;;;;1.73;1.63;;;;;;;;;;10410591;28;20021;-59
2023/01/09 06:32:41;;;;;;;1.88;1.70;;;;;;;;;;10395839;28;20049;-49
2023/01/09 06:37:41;;;;;;;1.85;1.75;;;;;;;;;;10409062;28;20022;-56
2023/01/09 06:42:45;;;;;;;2.80;1.80;;;;;;;;;;10393040;28;20029;-58
2023/01/09 06:47:47;;;;;;;1.73;1.55;;;;;;;;;;10382390;28;20025;-55
2023/01/09 06:52:47;;;;;;;3.83;1.70;;;;;;;;;;10388484;28;20049;-58
2023/01/09 06:57:48;;;;;;;3.42;2.15;;;;;;;;;;10377048;28;20038;-56
2023/01/09 07:02:48;;;;;;;7.47;1.73;;;;;;;;;;10380091;28;20033;-44
2023/01/09 07:07:49;;;;;;;6.30;2.38;;;;;;;;;;10380946;28;20076;-48
2023/01/09 07:12:50;;;;;;;11.05;2.13;;;;;;;;;;10379153;28;20048;-47
2023/01/09 07:17:51;;;;;;;5.43;2.17;;;;;;;;;;10393423;28;20034;-45
2023/01/09 07:22:52;;;;;;;10.73;2.38;;;;;;;;;;10398823;28;20428;-49
2023/01/09 07:27:53;;;;;;;5.07;2.25;;;;;;;;;;10400022;28;20032;-45
2023/01/09 07:32:53;;;;;;;4.20;1.73;;;;;;;;;;10371774;28;20029;-48
2023/01/09 07:37:54;;;;;;;3.47;1.80;;;;;;;;;;10377027;28;20033;-54
2023/01/09 07:42:55;;;;;;;4.32;1.77;;;;;;;;;;10383043;28;20432;-59
2023/01/09 07:47:55;;;;;;;3.00;1.98;;;;;;;;;;10389169;28;20389;-56
2023/01/09 07:52:56;;;;;;;4.22;2.22;;;;;;;;;;10400687;28;20049;-57
2023/01/09 07:57:56;;;;;;;6.10;2.45;;;;;;;;;;10407691;28;20039;-59
2023/01/09 08:02:57;;;;;;;4.45;1.85;;;;;;;;;;10407745;28;20087;-53
2023/01/09 08:07:58;;;;;;;5.93;1.58;;;;;;;;;;10403688;28;20536;-52
2023/01/09 08:12:58;;;;;;;4.70;1.77;;;;;;;;;;10406507;28;20037;-51
2023/01/09 08:17:59;;;;;;;4.00;1.90;;;;;;;;;;10406793;28;20087;-55
2023/01/09 08:22:59;;;;;;;2.38;1.90;;;;;;;;;;10406754;28;20075;-57
2023/01/09 08:28:00;;;;;;;5.07;1.83;;;;;;;;;;10407034;28;20033;-59
2023/01/09 08:33:01;;;;;;;4.97;1.90;;;;;;;;;;10408095;28;20033;-51
2023/01/09 08:38:02;;;;;;;5.85;2.13;;;;;;;;;;10414411;28;20084;-53
2023/01/09 08:48:22;;;;;;;5.32;1.90;;;;;;;;;;10413918;28;20100;-54
2023/01/09 08:53:22;;;;;;;1.95;1.60;;;;;;;;;;10412410;28;20038;-48
2023/01/09 08:58:23;;;;;;;3.65;1.90;;;;;;;;;;10413568;28;20037;-46
2023/01/09 09:03:24;;;;;;;5.35;1.83;;;;;;;;;;10413736;28;20022;-47
2023/01/09 09:08:24;;;;;;;6.53;1.98;;;;;;;;;;10408730;28;20045;-47
2023/01/09 09:13:25;;;;;;;3.72;1.77;;;;;;;;;;10414108;28;20029;-54
2023/01/09 09:18:26;;;;;;;1.85;1.75;;;;;;;;;;10413293;28;20026;-51
2023/01/09 09:23:26;;;;;;;1.80;1.52;;;;;;;;;;10413204;28;20531;-59
2023/01/09 09:28:27;;;;;;;3.67;1.70;;;;;;;;;;10412884;28;20047;-55
2023/01/09 09:33:29;;;;;;;4.15;1.83;;;;;;;;;;10413009;28;20053;-58
2023/01/09 09:38:29;;;;;;;3.83;1.63;;;;;;;;;;10412419;28;20043;-57
2023/01/09 09:49:15;;;;;;;3.53;1.80;;;;;;;;;;10411688;28;20038;-52
2023/01/09 09:54:57;;;;;;;2.35;1.83;;;;;;;;;;10410585;28;20037;-52
2023/01/09 09:59:57;;;;;;;1.52;1.42;;;;;;;;;;10348434;28;20032;-55
2023/01/09 10:05:10;;;;;;;1.77;1.40;;;;;;;;;;10363979;28;20363;-57
2023/01/09 10:10:26;;;;;;;3.30;1.70;;;;;;;;;;10364301;28;20105;-56
2023/01/09 10:15:40;;;;;;;3.50;1.90;;;;;;;;;;10356695;28;20056;-53
2023/01/09 10:21:12;;;;;;;2.40;1.90;;;;;;;;;;10352243;28;20445;-53
2023/01/09 10:26:26;;;;;;;3.65;1.90;;;;;;;;;;10362709;28;20072;-58
2023/01/09 10:31:48;;;;;;;2.03;1.80;;;;;;;;;;10406272;28;20477;-59
2023/01/09 10:37:04;;;;;;;2.20;1.67;;;;;;;;;;10409678;28;20029;-56
2023/01/09 10:42:35;;;;;;;2.45;1.90;;;;;;;;;;10407410;28;20496;-43
2023/01/09 10:47:38;;;;;;;3.45;1.98;;;;;;;;;;10402313;28;20032;-59
2023/01/09 10:52:41;;;;;;;7.30;1.55;;;;;;;;;;10408428;28;20064;-57
2023/01/09 10:58:09;;;;;;;2.63;1.75;;;;;;;;;;10406755;28;20032;-53
2023/01/09 11:03:23;;;;;;;3.35;2.20;;;;;;;;;;10408625;28;20029;-45
2023/01/09 11:08:40;;;;;;;4.53;1.60;;;;;;;;;;10409023;28;20033;-59
2023/01/09 11:13:46;;;;;;;1.73;1.63;;;;;;;;;;10407233;28;20064;-57
2023/01/09 11:18:57;;;;;;;4.13;1.80;;;;;;;;;;10408557;28;20041;-44
2023/01/09 11:24:17;;;;;;;7.50;1.80;;;;;;;;;;10406603;28;20030;-44
2023/01/09 11:29:23;;;;;;;4.32;2.05;;;;;;;;;;10407807;28;20159;-43
2023/01/09 11:34:30;;;;;;;1.70;1.60;;;;;;;;;;10408108;28;20348;-49
2023/01/09 11:39:34;;;;;;;2.13;1.80;;;;;;;;;;10408203;28;20083;-56
2023/01/09 11:44:34;;;;;;;3.67;2.05;;;;;;;;;;10407750;28;20025;-47
2023/01/09 11:49:35;;;;;;;2.13;1.80;;;;;;;;;;10407302;28;20030;-47
2023/01/09 11:54:37;;;;;;;1.85;1.50;;;;;;;;;;10407116;28;20060;-46
2023/01/09 11:59:37;;;;;;;1.92;1.50;;;;;;;;;;10406176;28;20111;-45
2023/01/09 12:04:54;;;;;;;2.15;1.60;;;;;;;;;;10407414;28;20126;-45
2023/01/09 12:10:15;;;;;;;2.15;1.45;;;;;;;;;;10413750;28;20025;-44
2023/01/09 12:15:49;;;;;;;2.50;1.45;;;;;;;;;;10415580;28;20026;-59
2023/01/09 12:21:05;;;;;;;2.28;1.58;;;;;;;;;;10414800;28;20385;-59
2023/01/09 12:26:32;;;;;;;1.90;1.48;;;;;;;;;;10414199;28;20495;-57
2023/01/09 12:31:58;;;;;;;1.48;1.38;;;;;;;;;;10415269;28;20042;-47
2023/01/09 12:37:48;;;;;;;5.60;1.60;;;;;;;;;;10411932;28;20037;-48
2023/01/09 12:43:09;;;;;;;1.98;1.77;;;;;;;;;;10394855;28;20048;-52
2023/01/09 12:48:35;;;;;;;4.10;1.80;;;;;;;;;;10412592;28;20037;-54
2023/01/09 12:53:48;;;;;;;1.95;1.52;;;;;;;;;;10406482;28;20475;-56
2023/01/09 12:58:59;;;;;;;1.50;1.40;;;;;;;;;;10407089;28;20448;-49
2023/01/09 13:04:14;;;;;;;2.22;1.60;;;;;;;;;;10412411;28;20052;-57
2023/01/09 13:09:30;;;;;;;2.00;1.80;;;;;;;;;;10403489;28;20539;-59
2023/01/09 13:14:38;;;;;;;1.70;1.60;;;;;;;;;;10399103;28;20030;-44
2023/01/09 13:19:39;;;;;;;1.70;1.60;;;;;;;;;;10405760;28;20392;-44
2023/01/09 13:25:12;;;;;;;2.58;1.60;;;;;;;;;;10413576;28;20037;-49
2023/01/09 13:30:43;;;;;;;1.85;1.63;;;;;;;;;;10417379;28;20025;-50
2023/01/09 13:35:56;;;;;;;1.55;1.45;;;;;;;;;;10416232;28;20043;-56
2023/01/09 13:42:34;;;;;;;2.05;1.60;;;;;;;;;;10421885;28;20116;-55
2023/01/09 13:46:36;;;;;;;1.95;1.75;;;;;;;;;;10418823;28;20053;-56
2023/01/09 13:51:56;;;;;;;4.13;1.70;;;;;;;;;;10406266;28;20084;-59
2023/01/09 13:57:17;;;;;;;4.97;1.80;;;;;;;;;;10398874;28;20026;-60
2023/01/09 14:02:33;;;;;;;2.20;2.00;;;;;;;;;;10409333;28;20025;-59
2023/01/09 14:07:47;;;;;;;1.70;1.60;;;;;;;;;;10410881;28;20107;-51
2023/01/09 14:12:55;;;;;;;2.20;1.63;;;;;;;;;;10403049;28;20029;-49
2023/01/09 14:18:22;;;;;;;1.93;1.50;;;;;;;;;;10409570;28;20064;-59
2023/01/09 14:23:47;;;;;;;4.30;1.50;;;;;;;;;;10410676;28;20021;-59
2023/01/09 14:28:49;;;;;;;2.38;1.50;;;;;;;;;;10394034;28;20499;-52
2023/01/09 14:33:49;;;;;;;1.40;1.30;;;;;;;;;;10409076;28;20033;-59
2023/01/09 14:39:00;;;;;;;1.50;1.40;;;;;;;;;;10409765;28;20087;-59
2023/01/09 14:44:05;;;;;;;3.10;1.65;;;;;;;;;;10408623;28;20091;-57
2023/01/09 14:49:33;;;;;;;1.77;1.40;;;;;;;;;;10408244;28;20018;-59
2023/01/09 14:54:39;;;;;;;1.97;1.53;;;;;;;;;;10406647;28;20061;-49
2023/01/09 14:59:55;;;;;;;3.67;1.98;;;;;;;;;;10407459;28;20056;-54
2023/01/09 15:05:09;;;;;;;1.67;1.58;;;;;;;;;;10408940;28;20029;-59
2023/01/09 15:10:28;;;;;;;1.42;1.33;;;;;;;;;;10407697;28;20025;-59
2023/01/09 15:15:28;;;;;;;1.60;1.50;;;;;;;;;;10401126;28;20033;-58
2023/01/09 15:20:32;;;;;;;2.05;1.60;;;;;;;;;;10407215;28;20037;-59
2023/01/09 15:25:36;;;;;;;1.77;1.60;;;;;;;;;;10408810;28;20379;-57
2023/01/09 15:30:36;;;;;;;1.77;1.55;;;;;;;;;;10395718;28;20384;-47
2023/01/09 15:35:49;;;;;;;1.70;1.60;;;;;;;;;;10408384;28;20033;-57
2023/01/09 15:41:06;;;;;;;1.60;1.50;;;;;;;;;;10399520;28;20026;-56
2023/01/09 15:46:10;;;;;;;1.52;1.38;;;;;;;;;;10407997;28;20389;-48
2023/01/09 15:51:19;;;;;;;1.58;1.45;;;;;;;;;;10406130;28;20057;-55
2023/01/09 15:56:24;;;;;;;3.95;1.60;;;;;;;;;;10407530;28;20055;-50
2023/01/09 16:01:40;;;;;;;2.10;1.48;;;;;;;;;;10407360;28;20036;-46
2023/01/09 16:06:47;;;;;;;1.60;1.50;;;;;;;;;;10407487;28;20445;-53
2023/01/09 16:11:52;;;;;;;1.55;1.30;;;;;;;;;;10404966;28;20546;-48
2023/01/09 16:16:57;;;;;;;1.60;1.50;;;;;;;;;;10405965;28;20021;-51
2023/01/09 16:22:01;;;;;;;2.33;1.65;;;;;;;;;;10406821;28;20017;-49
2023/01/09 16:27:24;;;;;;;1.40;1.30;;;;;;;;;;10406590;28;20030;-56
2023/01/09 16:32:25;;;;;;;1.50;1.40;;;;;;;;;;10405579;28;20057;-50
2023/01/09 16:37:26;;;;;;;2.58;1.75;;;;;;;;;;10406708;28;20484;-59
2023/01/09 16:47:46;;;;;;;1.52;1.40;;;;;;;;;;10406462;28;20038;-53
2023/01/09 16:52:46;;;;;;;2.00;1.63;;;;;;;;;;10405643;28;20041;-50
2023/01/09 16:57:47;;;;;;;1.70;1.40;;;;;;;;;;10413470;28;20052;-59
2023/01/09 17:02:48;;;;;;;2.05;1.77;;;;;;;;;;10413561;28;20029;-60
2023/01/09 17:07:48;;;;;;;2.20;1.77;;;;;;;;;;10412520;28;20116;-44
2023/01/09 17:12:49;;;;;;;2.03;1.48;;;;;;;;;;10410642;28;20099;-48
2023/01/09 17:17:50;;;;;;;2.08;1.50;;;;;;;;;;10412027;28;20045;-45
2023/01/09 17:22:50;;;;;;;2.03;1.80;;;;;;;;;;10412692;28;20075;-46
2023/01/09 17:33:17;;;;;;;2.95;1.88;;;;;;;;;;10412672;28;20029;-45
2023/01/09 17:38:18;;;;;;;2.10;1.77;;;;;;;;;;10410158;28;20040;-59
2023/01/09 17:43:19;;;;;;;1.92;1.67;;;;;;;;;;10398648;28;20030;-58
2023/01/09 17:48:21;;;;;;;1.92;1.35;;;;;;;;;;10404480;28;20033;-60
2023/01/09 17:53:24;;;;;;;2.58;1.95;;;;;;;;;;10389392;28;20532;-58
2023/01/09 17:58:29;;;;;;;2.95;2.25;;;;;;;;;;10374323;28;20044;-54
2023/01/09 18:03:32;;;;;;;2.40;2.15;;;;;;;;;;10381624;28;20029;-60
2023/01/09 18:08:32;;;;;;;3.47;2.05;;;;;;;;;;10389704;28;20034;-59
2023/01/09 18:13:33;;;;;;;2.95;2.10;;;;;;;;;;10392135;28;20037;-59
2023/01/09 18:18:34;;;;;;;4.32;2.53;;;;;;;;;;10398004;28;20476;-59
2023/01/09 18:23:35;;;;;;;2.58;2.28;;;;;;;;;;10386899;28;20029;-59
2023/01/09 18:28:38;;;;;;;2.65;2.03;;;;;;;;;;10419250;28;20036;-51
2023/01/09 18:33:39;;;;;;;3.55;2.50;;;;;;;;;;10398421;28;20033;-57
2023/01/09 18:38:40;;;;;;;2.63;2.20;;;;;;;;;;10383649;28;20036;-51
2023/01/09 18:43:41;;;;;;;5.07;2.50;;;;;;;;;;10386856;28;20033;-57
2023/01/09 18:48:41;;;;;;;2.78;2.15;;;;;;;;;;10400338;28;20377;-59
2023/01/09 18:53:42;;;;;;;3.83;2.42;;;;;;;;;;10405543;28;20492;-54
2023/01/09 18:58:42;;;;;;;4.18;3.08;;;;;;;;;;10399340;28;20029;-50
2023/01/09 19:03:43;;;;;;;16.55;3.97;;;;;;;;;;10380562;28;20033;-53
2023/01/09 19:08:44;;;;;;;12.95;4.28;;;;;;;;;;10397630;28;20080;-57
2023/01/09 19:13:45;;;;;;;8.48;4.03;;;;;;;;;;10382202;28;20092;-50
2023/01/09 19:18:45;;;;;;;11.05;4.07;;;;;;;;;;10370815;28;20068;-53
2023/01/09 19:23:47;;;;;;;7.40;4.07;;;;;;;;;;10377064;28;20038;-59
2023/01/09 19:28:49;;;;;;;6.35;3.85;;;;;;;;;;10385978;28;20056;-56
2023/01/09 19:33:51;;;;;;;8.27;3.60;;;;;;;;;;10373167;28;20068;-51
2023/01/09 19:38:56;;;;;;;9.35;4.13;;;;;;;;;;10380724;28;20374;-50
2023/01/09 19:44:00;;;;;;;7.50;4.18;;;;;;;;;;10385011;28;20026;-51
2023/01/09 19:49:03;;;;;;;7.63;4.00;;;;;;;;;;10380217;28;20033;-56
2023/01/09 19:54:04;;;;;;;7.63;4.40;;;;;;;;;;10399971;28;20045;-55
2023/01/09 19:59:06;;;;;;;13.65;3.97;;;;;;;;;;10390953;28;20033;-47
2023/01/09 20:04:12;;;;;;;6.75;4.25;;;;;;;;;;10395065;28;20053;-55
2023/01/09 20:09:16;;;;;;;5.80;4.05;;;;;;;;;;10392203;28;20083;-54
2023/01/09 20:14:18;;;;;;;9.80;4.32;;;;;;;;;;10405586;28;20025;-53
2023/01/09 20:19:19;;;;;;;8.50;4.72;;;;;;;;;;10401825;28;20449;-56
2023/01/09 20:24:19;;;;;;;11.18;5.43;;;;;;;;;;10388832;28;20025;-52
2023/01/09 20:29:20;;;;;;;10.20;4.45;;;;;;;;;;10390580;28;20030;-46
2023/01/09 20:34:21;;;;;;;9.55;4.82;;;;;;;;;;10387454;28;20069;-47
2023/01/09 20:39:21;;;;;;;9.90;5.05;;;;;;;;;;10385701;28;20026;-46
2023/01/09 20:44:22;;;;;;;8.90;4.97;;;;;;;;;;10388809;28;20026;-48
2023/01/09 20:49:23;;;;;;;12.45;5.55;;;;;;;;;;10383706;28;20038;-59
2023/01/09 20:54:23;;;;;;;11.35;5.38;;;;;;;;;;10396517;28;20512;-60
2023/01/09 20:59:24;;;;;;;9.90;4.63;;;;;;;;;;10380486;28;20026;-62
2023/01/09 21:04:25;;;;;;;12.32;5.13;;;;;;;;;;10388663;28;20030;-58
2023/01/09 21:09:25;;;;;;;10.57;5.28;;;;;;;;;;10380282;28;20026;-50
2023/01/09 21:14:26;;;;;;;9.90;5.70;;;;;;;;;;10394205;28;20477;-58
2023/01/09 21:19:26;;;;;;;7.47;4.82;;;;;;;;;;10397856;28;20029;-61
2023/01/09 21:24:27;;;;;;;7.72;5.00;;;;;;;;;;10384297;28;20033;-55
2023/01/09 21:29:27;;;;;;;8.68;4.75;;;;;;;;;;10376019;28;20080;-61
2023/01/09 21:34:28;;;;;;;9.75;5.30;;;;;;;;;;10382967;28;20298;-61
2023/01/09 21:39:29;;;;;;;8.10;5.07;;;;;;;;;;10383837;28;20037;-60
2023/01/09 21:49:49;;;;;;;9.38;5.32;;;;;;;;;;10395450;28;20018;-61
2023/01/09 21:54:49;;;;;;;9.70;4.70;;;;;;;;;;10398273;28;20029;-55
2023/01/09 21:59:50;;;;;;;8.32;5.10;;;;;;;;;;10403059;28;20076;-61
2023/01/09 22:04:50;;;;;;;7.05;5.05;;;;;;;;;;10407893;28;20096;-62
2023/01/09 22:09:51;;;;;;;9.45;5.00;;;;;;;;;;10382020;28;20025;-50
2023/01/09 22:14:51;;;;;;;7.25;4.70;;;;;;;;;;10387763;28;20469;-55
2023/01/09 22:19:52;;;;;;;9.32;5.20;;;;;;;;;;10394527;28;20025;-57
2023/01/09 22:24:53;;;;;;;8.73;4.97;;;;;;;;;;10392586;28;20373;-50
2023/01/09 22:29:53;;;;;;;6.70;4.35;;;;;;;;;;10395257;28;20527;-61
2023/01/09 22:34:54;;;;;;;9.57;4.63;;;;;;;;;;10380360;28;20037;-61
2023/01/09 22:39:54;;;;;;;7.90;4.68;;;;;;;;;;10379643;28;20033;-54
2023/01/09 22:44:55;;;;;;;7.50;4.72;;;;;;;;;;10376935;28;20061;-55
2023/01/09 22:49:55;;;;;;;6.22;4.80;;;;;;;;;;10375550;28;20030;-60
2023/01/09 22:54:56;;;;;;;8.20;5.20;;;;;;;;;;10397807;28;20057;-46
2023/01/09 22:59:57;;;;;;;6.75;4.68;;;;;;;;;;10402799;28;20018;-49
2023/01/09 23:04:57;;;;;;;9.40;4.65;;;;;;;;;;10395470;28;20032;-50
2023/01/09 23:09:59;;;;;;;10.18;4.88;;;;;;;;;;10383016;28;20025;-47
2023/01/09 23:14:59;;;;;;;10.60;5.05;;;;;;;;;;10383512;28;20189;-45
2023/01/09 23:20:00;;;;;;;6.00;4.57;;;;;;;;;;10375190;28;20557;-50
2023/01/09 23:25:01;;;;;;;9.60;4.93;;;;;;;;;;10392544;28;20420;-47
2023/01/09 23:30:01;;;;;;;5.90;4.60;;;;;;;;;;10377397;28;20456;-46
2023/01/09 23:35:02;;;;;;;8.43;5.53;;;;;;;;;;10384876;28;20500;-57
2023/01/09 23:40:04;;;;;;;8.77;4.97;;;;;;;;;;10378801;28;20133;-45
2023/01/09 23:45:05;;;;;;;9.13;4.72;;;;;;;;;;10373065;28;20184;-46
2023/01/09 23:50:07;;;;;;;7.93;4.60;;;;;;;;;;10377606;28;20052;-45
2023/01/09 23:55:09;;;;;;;6.43;4.82;;;;;;;;;;10401715;28;20265;-45
